createdAt,value
2022-12-19T00:00:35.040Z,4.20
2022-12-19T00:05:39.244Z,4.10
2022-12-19T00:10:41.576Z,3.90
2022-12-19T00:15:44.010Z,3.60
2022-12-19T00:20:54.074Z,3.50
2022-12-19T00:25:56.595Z,3.50
2022-12-19T00:31:01.712Z,3.50
2022-12-19T00:36:07.855Z,3.30
2022-12-19T00:41:14.380Z,3.10
2022-12-19T00:46:16.665Z,2.80
2022-12-19T00:51:21.986Z,2.40
2022-12-19T00:56:27.935Z,2.30
2022-12-19T01:01:34.328Z,2.20
2022-12-19T01:06:36.702Z,2.20
2022-12-19T01:12:01.056Z,2.20
2022-12-19T01:17:03.289Z,2.60
2022-12-19T01:22:05.645Z,2.70
2022-12-19T01:27:08.620Z,3.00
2022-12-19T01:32:10.920Z,3.20
2022-12-19T01:37:13.150Z,3.30
2022-12-19T01:42:19.626Z,3.10
2022-12-19T01:47:25.587Z,3.10
2022-12-19T01:52:27.877Z,3.20
2022-12-19T01:57:30.669Z,3.00
2022-12-19T02:02:39.522Z,3.00
2022-12-19T02:07:43.396Z,2.90
2022-12-19T02:12:46.382Z,2.80
2022-12-19T02:39:02.331Z,2.60
2022-12-19T02:44:07.707Z,2.60
2022-12-19T02:49:11.133Z,2.60
2022-12-19T02:54:22.344Z,2.30
2022-12-19T03:15:19.829Z,2.50
2022-12-19T03:25:37.666Z,2.70
2022-12-19T03:30:43.323Z,2.70
2022-12-19T03:35:47.448Z,2.40
2022-12-19T03:40:50.803Z,2.20
2022-12-19T03:51:43.459Z,2.20
2022-12-19T03:57:07.891Z,2.10
2022-12-19T04:02:11.792Z,1.90
2022-12-19T04:07:16.568Z,2.10
2022-12-19T04:12:23.164Z,2.10
2022-12-19T04:27:55.889Z,2.10
2022-12-19T04:32:58.729Z,2.00
2022-12-19T04:38:01.067Z,2.10
2022-12-19T04:43:03.328Z,2.10
2022-12-19T04:48:05.726Z,1.90
2022-12-19T04:53:10.483Z,2.00
2022-12-19T04:58:17.597Z,1.90
2022-12-19T05:03:21.347Z,1.90
2022-12-19T05:08:23.673Z,2.00
2022-12-19T05:13:26.010Z,1.80
2022-12-19T05:18:29.143Z,1.70
2022-12-19T05:23:31.979Z,1.50
2022-12-19T05:28:34.949Z,1.30
2022-12-19T05:33:38.420Z,1.20
2022-12-19T05:38:41.206Z,1.20
2022-12-19T05:43:44.250Z,1.30
2022-12-19T05:48:46.970Z,1.40
2022-12-19T05:53:49.335Z,1.60
2022-12-19T05:58:51.703Z,1.40
2022-12-19T06:03:55.220Z,1.20
2022-12-19T06:08:59.226Z,1.30
2022-12-19T06:14:01.475Z,1.30
2022-12-19T06:19:03.864Z,1.10
2022-12-19T06:24:06.542Z,1.00
2022-12-19T06:29:08.916Z,1.00
2022-12-19T06:34:15.334Z,1.00
2022-12-19T06:39:24.569Z,1.00
2022-12-19T06:44:27.194Z,0.90
2022-12-19T06:49:29.781Z,0.70
2022-12-19T06:54:32.050Z,0.90
2022-12-19T06:59:34.334Z,1.10
2022-12-19T07:04:41.769Z,1.40
2022-12-19T07:09:44.137Z,1.60
2022-12-19T07:14:51.652Z,1.80
2022-12-19T07:19:57.439Z,1.70
2022-12-19T07:25:01.211Z,1.70
2022-12-19T07:30:05.556Z,1.60
2022-12-19T07:35:08.266Z,1.70
2022-12-19T07:40:14.169Z,1.70
2022-12-19T07:45:16.448Z,1.80
2022-12-19T07:50:18.723Z,1.90
2022-12-19T07:55:21.087Z,1.90
2022-12-19T08:00:24.121Z,1.90
2022-12-19T08:05:26.431Z,1.90
2022-12-19T08:10:28.778Z,2.20
2022-12-19T08:15:31.685Z,3.30
2022-12-19T08:20:33.965Z,3.60
2022-12-19T08:25:39.459Z,4.30
2022-12-19T08:30:41.839Z,6.20
2022-12-19T08:35:44.099Z,7.00
2022-12-19T08:40:53.705Z,8.10
2022-12-19T08:45:56.144Z,9.20
2022-12-19T08:51:01.106Z,10.50
2022-12-19T08:56:08.678Z,11.50
2022-12-19T09:01:15.405Z,11.50
2022-12-19T09:06:18.884Z,9.90
2022-12-19T09:11:21.697Z,9.10
2022-12-19T09:16:26.281Z,8.40
2022-12-19T09:21:29.580Z,8.10
2022-12-19T09:26:33.679Z,7.60
2022-12-19T09:31:36.423Z,7.00
2022-12-19T09:36:38.726Z,6.70
2022-12-19T09:42:20.782Z,6.50
2022-12-19T09:47:27.823Z,6.20
2022-12-19T09:52:37.565Z,6.10
2022-12-19T10:08:18.799Z,5.70
2022-12-19T10:19:00.607Z,5.00
2022-12-19T10:35:14.440Z,4.90
2022-12-19T10:40:32.182Z,4.90
2022-12-19T10:45:46.982Z,4.80
2022-12-19T10:50:49.878Z,4.70
2022-12-19T10:55:53.899Z,4.40
2022-12-19T11:01:02.568Z,4.40
2022-12-19T11:06:06.383Z,4.30
2022-12-19T11:19:50.059Z,4.30
2022-12-19T11:29:37.682Z,4.60
2022-12-19T11:30:59.584Z,5.00
2022-12-19T11:38:48.590Z,4.80
2022-12-19T11:44:02.212Z,4.70
2022-12-19T11:49:38.758Z,5.00
2022-12-19T11:55:00.671Z,5.10
2022-12-19T12:00:05.632Z,5.10
2022-12-19T12:14:45.471Z,4.90
2022-12-19T12:24:05.052Z,4.70
2022-12-19T12:35:36.472Z,4.60
2022-12-19T12:48:47.985Z,4.80
2022-12-19T12:53:53.490Z,4.90
2022-12-19T13:39:48.761Z,2.90
2022-12-19T13:42:41.227Z,2.50
2022-12-19T13:47:45.429Z,2.40
2022-12-19T13:52:52.103Z,2.20
2022-12-19T13:57:55.803Z,1.70
2022-12-19T14:03:00.436Z,1.30
2022-12-19T14:08:04.698Z,0.90
2022-12-19T14:14:00.715Z,0.80
2022-12-19T14:18:57.045Z,0.80
2022-12-19T14:30:28.445Z,0.70
2022-12-19T14:36:06.506Z,0.60
2022-12-19T14:40:31.881Z,0.40
2022-12-19T14:54:16.266Z,0.30
2022-12-19T14:56:33.661Z,0.40
2022-12-19T15:01:50.155Z,0.30
2022-12-19T15:07:10.038Z,0.30
2022-12-19T15:14:47.629Z,0.40
2022-12-19T15:17:57.766Z,0.30
2022-12-19T15:23:00.034Z,0.40
2022-12-19T15:28:02.309Z,0.40
2022-12-19T15:33:13.140Z,0.40
2022-12-19T15:38:15.474Z,0.40
2022-12-19T15:43:53.617Z,0.30
2022-12-19T15:48:48.523Z,0.20
2022-12-19T15:53:50.793Z,0.10
2022-12-19T15:58:54.949Z,-0.20
2022-12-19T16:04:00.644Z,0.00
2022-12-19T16:09:10.146Z,0.20
2022-12-19T16:14:13.230Z,0.20
2022-12-19T16:24:35.376Z,0.30
2022-12-19T16:29:41.728Z,0.10
2022-12-19T16:34:44.256Z,0.20
2022-12-19T16:39:46.593Z,-0.10
2022-12-19T16:44:48.848Z,-0.30
2022-12-19T16:49:51.123Z,-0.40
2022-12-19T16:54:53.338Z,-0.50
2022-12-19T16:59:55.623Z,-0.40
2022-12-19T17:04:57.871Z,-0.10
2022-12-19T17:10:00.150Z,-0.20
2022-12-19T17:15:05.299Z,0.10
2022-12-19T17:20:15.059Z,0.20
2022-12-19T17:30:30.897Z,0.50
2022-12-19T17:35:36.689Z,0.40
2022-12-19T17:40:39.953Z,0.50
2022-12-19T17:45:42.382Z,0.40
2022-12-19T17:50:44.805Z,0.30
2022-12-19T17:55:47.200Z,0.10
2022-12-19T18:00:50.226Z,0.20
2022-12-19T18:05:54.996Z,0.00
2022-12-19T18:10:59.349Z,0.10
2022-12-19T18:16:03.790Z,0.20
2022-12-19T18:21:06.464Z,0.20
2022-12-19T18:26:11.482Z,0.30
2022-12-19T18:31:25.744Z,0.40
2022-12-19T18:36:29.934Z,0.50
2022-12-19T18:41:32.191Z,0.50
2022-12-19T18:46:34.638Z,0.50
2022-12-19T18:51:36.939Z,0.60
2022-12-19T18:56:39.882Z,0.80
2022-12-19T19:01:44.623Z,0.80
2022-12-19T19:06:51.754Z,0.80
2022-12-19T19:11:55.091Z,0.80
2022-12-19T19:16:57.499Z,0.80
2022-12-19T19:21:59.766Z,0.70
2022-12-19T19:27:02.014Z,0.80
2022-12-19T19:32:04.448Z,0.70
2022-12-19T19:37:10.827Z,0.80
2022-12-19T19:42:13.082Z,0.80
2022-12-19T19:47:15.441Z,0.70
2022-12-19T19:52:17.678Z,0.60
2022-12-19T19:57:20.842Z,0.60
2022-12-19T20:02:23.295Z,0.50
2022-12-19T20:07:25.668Z,0.50
2022-12-19T20:12:28.013Z,0.40
2022-12-19T20:17:30.274Z,0.40
2022-12-19T20:22:32.486Z,0.30
2022-12-19T20:27:34.879Z,0.30
2022-12-19T20:32:37.160Z,0.40
2022-12-19T20:37:39.553Z,0.30
2022-12-19T20:42:41.934Z,0.40
2022-12-19T20:47:44.173Z,0.40
2022-12-19T20:52:46.407Z,0.40
2022-12-19T20:57:48.652Z,0.60
2022-12-19T21:03:26.670Z,0.50
2022-12-19T21:08:13.368Z,0.50
2022-12-19T21:13:16.120Z,0.60
2022-12-19T21:18:18.566Z,0.70
2022-12-19T21:23:21.801Z,0.80
2022-12-19T21:28:24.744Z,0.60
2022-12-19T21:33:27.635Z,0.50
2022-12-19T21:38:30.031Z,0.60
2022-12-19T21:43:33.945Z,0.80
2022-12-19T21:48:39.376Z,0.80
2022-12-19T21:53:42.311Z,0.80
2022-12-19T21:58:44.678Z,0.80
2022-12-19T22:03:47.630Z,0.80
2022-12-19T22:08:50.182Z,0.90
2022-12-19T22:13:53.376Z,0.90
2022-12-19T22:18:56.585Z,0.90
2022-12-19T22:24:01.957Z,0.90
2022-12-19T22:29:09.786Z,0.90
2022-12-19T22:34:15.649Z,0.80
2022-12-19T22:39:20.417Z,0.70
2022-12-19T22:44:24.499Z,0.70
2022-12-19T22:49:26.910Z,0.60
2022-12-19T22:54:29.194Z,0.60
2022-12-19T22:59:31.470Z,0.60
2022-12-19T23:04:36.566Z,0.50
2022-12-19T23:09:38.904Z,0.60
2022-12-19T23:14:41.248Z,0.50
2022-12-19T23:19:43.595Z,0.50
2022-12-19T23:24:45.872Z,0.60
2022-12-19T23:29:49.768Z,0.70
2022-12-19T23:34:52.067Z,0.70
2022-12-19T23:39:54.304Z,0.80
2022-12-19T23:44:56.515Z,0.90
2022-12-19T23:49:58.953Z,0.90
2022-12-19T23:55:01.206Z,0.80
